createdAt,value
2022-10-30T00:00:16.640Z,185.50
2022-10-30T00:05:20.885Z,182.50
2022-10-30T00:10:24.222Z,173.53
2022-10-30T00:15:26.527Z,181.53
2022-10-30T00:20:28.873Z,207.37
2022-10-30T00:25:31.281Z,221.97
2022-10-30T00:30:34.749Z,230.10
2022-10-30T00:35:37.145Z,214.13
2022-10-30T00:40:39.468Z,221.67
2022-10-30T00:45:41.805Z,221.60
2022-10-30T00:50:44.155Z,229.90
2022-10-30T00:55:52.420Z,220.67
2022-10-30T01:00:58.510Z,202.27
2022-10-30T01:06:04.423Z,197.43
2022-10-30T01:11:09.281Z,209.43
2022-10-30T01:16:49.289Z,194.40
2022-10-30T01:22:29.740Z,192.97
2022-10-30T01:27:39.200Z,183.50
2022-10-30T01:33:05.227Z,189.27
2022-10-30T01:38:15.927Z,188.47
2022-10-30T01:43:19.554Z,175.30
2022-10-30T01:48:45.650Z,171.10
2022-10-30T01:54:03.432Z,186.87
2022-10-30T01:59:18.452Z,177.57
2022-10-30T02:04:21.260Z,193.53
2022-10-30T02:09:26.053Z,182.90
2022-10-30T02:14:33.847Z,167.73
2022-10-30T02:19:39.360Z,167.33
2022-10-30T02:24:41.646Z,163.07
2022-10-30T02:29:44.271Z,152.83
2022-10-30T02:34:46.729Z,155.57
2022-10-30T02:39:50.504Z,149.00
2022-10-30T02:44:52.816Z,151.83
2022-10-30T02:49:55.505Z,143.00
2022-10-30T02:54:57.808Z,155.80
2022-10-30T03:00:00.402Z,151.70
2022-10-30T03:05:03.530Z,150.93
2022-10-30T03:10:07.407Z,152.20
2022-10-30T03:15:11.375Z,149.57
2022-10-30T03:20:13.702Z,146.00
2022-10-30T03:25:16.082Z,151.63
2022-10-30T03:30:19.311Z,139.80
2022-10-30T03:35:23.213Z,133.43
2022-10-30T03:40:25.536Z,124.47
2022-10-30T03:45:27.859Z,117.40
2022-10-30T03:50:30.367Z,95.27
2022-10-30T03:55:33.336Z,94.93
2022-10-30T04:00:36.584Z,116.50
2022-10-30T04:05:39.398Z,122.57
2022-10-30T04:10:46.512Z,113.33
2022-10-30T04:15:57.228Z,121.00
2022-10-30T04:21:00.851Z,119.93
2022-10-30T04:26:03.574Z,110.00
2022-10-30T04:31:06.625Z,107.13
2022-10-30T04:36:09.882Z,102.37
2022-10-30T04:41:12.210Z,88.10
2022-10-30T04:46:25.643Z,84.97
2022-10-30T04:51:31.386Z,76.87
2022-10-30T04:56:33.797Z,74.97
2022-10-30T05:01:36.814Z,70.93
2022-10-30T05:06:40.167Z,80.80
2022-10-30T05:11:43.279Z,83.83
2022-10-30T05:16:45.736Z,87.73
2022-10-30T05:21:48.044Z,90.90
2022-10-30T05:26:50.849Z,90.77
2022-10-30T05:31:53.274Z,88.83
2022-10-30T05:37:13.243Z,78.40
2022-10-30T05:42:16.869Z,79.27
2022-10-30T05:47:21.445Z,76.80
2022-10-30T05:52:29.369Z,73.50
2022-10-30T05:57:33.694Z,77.73
2022-10-30T06:02:36.887Z,74.40
2022-10-30T06:07:39.327Z,72.20
2022-10-30T06:12:42.728Z,75.37
2022-10-30T06:18:01.973Z,74.77
2022-10-30T06:23:16.267Z,79.53
2022-10-30T06:28:30.048Z,78.93
2022-10-30T06:33:32.957Z,64.23
2022-10-30T06:38:35.994Z,55.87
2022-10-30T06:43:38.682Z,57.77
2022-10-30T06:48:50.406Z,68.27
2022-10-30T06:53:53.788Z,87.07
2022-10-30T06:59:14.535Z,97.87
2022-10-30T07:04:29.703Z,94.20
2022-10-30T07:09:35.243Z,92.23
2022-10-30T07:14:38.166Z,83.30
2022-10-30T07:19:52.701Z,76.00
2022-10-30T07:24:55.193Z,73.90
2022-10-30T07:30:17.310Z,80.87
2022-10-30T07:35:54.918Z,73.43
2022-10-30T07:41:20.641Z,65.30
2022-10-30T07:46:26.135Z,59.13
2022-10-30T07:51:46.739Z,53.67
2022-10-30T07:56:50.640Z,48.80
2022-10-30T08:02:11.718Z,52.80
2022-10-30T08:07:48.414Z,62.53
2022-10-30T08:12:50.802Z,60.33
2022-10-30T08:17:53.646Z,45.77
2022-10-30T08:22:58.076Z,46.87
2022-10-30T08:28:06.734Z,42.40
2022-10-30T08:33:20.370Z,44.27
2022-10-30T08:38:31.906Z,39.53
2022-10-30T08:43:45.542Z,46.23
2022-10-30T08:48:48.103Z,60.23
2022-10-30T08:53:50.937Z,38.17
2022-10-30T08:58:56.011Z,35.83
2022-10-30T09:03:58.545Z,37.90
2022-10-30T09:09:19.333Z,35.60
2022-10-30T09:14:25.916Z,37.87
2022-10-30T09:19:29.157Z,41.77
2022-10-30T09:24:33.988Z,42.47
2022-10-30T09:29:54.861Z,35.00
2022-10-30T09:34:59.867Z,36.20
2022-10-30T09:40:08.493Z,36.60
2022-10-30T09:45:43.028Z,33.80
2022-10-30T09:51:12.920Z,32.90
2022-10-30T09:56:23.201Z,36.87
2022-10-30T10:01:44.181Z,43.63
2022-10-30T10:06:50.895Z,35.73
2022-10-30T10:12:34.285Z,39.47
2022-10-30T10:17:42.089Z,43.03
2022-10-30T10:22:50.232Z,37.40
2022-10-30T10:28:11.067Z,33.53
2022-10-30T10:33:37.369Z,40.43
2022-10-30T10:38:45.883Z,33.80
2022-10-30T10:43:48.199Z,38.83
2022-10-30T10:48:50.519Z,32.10
2022-10-30T10:54:14.304Z,35.27
2022-10-30T10:59:33.151Z,33.00
2022-10-30T11:04:50.999Z,27.23
2022-10-30T11:09:55.201Z,29.77
2022-10-30T11:15:01.435Z,35.60
2022-10-30T11:20:23.514Z,81.57
2022-10-30T11:25:33.398Z,61.40
2022-10-30T11:30:35.785Z,37.03
2022-10-30T11:35:43.168Z,33.87
2022-10-30T11:40:52.710Z,36.90
2022-10-30T11:45:55.427Z,33.03
2022-10-30T11:51:02.678Z,32.83
2022-10-30T11:56:15.883Z,33.90
2022-10-30T12:01:30.620Z,31.83
2022-10-30T12:06:33.017Z,46.80
2022-10-30T12:11:36.408Z,36.00
2022-10-30T12:16:46.506Z,36.90
2022-10-30T12:21:54.027Z,33.83
2022-10-30T12:27:00.981Z,33.20
2022-10-30T12:32:09.724Z,33.23
2022-10-30T12:37:24.189Z,38.77
2022-10-30T12:42:26.839Z,31.43
2022-10-30T12:47:56.666Z,39.17
2022-10-30T12:53:09.652Z,36.33
2022-10-30T12:58:18.081Z,33.83
2022-10-30T13:03:41.432Z,52.30
2022-10-30T13:09:25.869Z,65.37
2022-10-30T13:14:42.252Z,37.20
2022-10-30T13:19:47.278Z,33.37
2022-10-30T13:25:14.411Z,31.83
2022-10-30T13:30:21.901Z,35.23
2022-10-30T13:35:36.340Z,29.97
2022-10-30T13:40:44.009Z,40.53
2022-10-30T13:45:58.298Z,38.53
2022-10-30T13:51:54.606Z,40.73
2022-10-30T13:57:04.593Z,36.37
2022-10-30T14:02:15.609Z,27.50
2022-10-30T14:07:50.069Z,34.83
2022-10-30T14:12:58.364Z,29.33
2022-10-30T14:18:24.658Z,41.80
2022-10-30T14:23:35.502Z,34.10
2022-10-30T14:28:49.490Z,40.67
2022-10-30T14:33:58.133Z,36.53
2022-10-30T14:39:10.460Z,32.73
2022-10-30T14:44:43.223Z,37.53
2022-10-30T14:50:14.545Z,40.13
2022-10-30T14:55:32.660Z,144.77
2022-10-30T15:00:42.016Z,218.87
2022-10-30T15:06:01.397Z,189.80
2022-10-30T15:11:06.545Z,75.63
2022-10-30T15:16:13.198Z,85.93
2022-10-30T15:21:25.679Z,73.17
2022-10-30T15:26:39.471Z,55.07
2022-10-30T15:31:41.848Z,61.90
2022-10-30T15:36:45.811Z,73.17
2022-10-30T15:41:58.120Z,81.50
2022-10-30T15:47:02.814Z,76.03
2022-10-30T15:52:15.001Z,105.33
2022-10-30T16:02:59.011Z,179.70
2022-10-30T16:08:03.156Z,153.53
2022-10-30T16:13:05.602Z,156.90
2022-10-30T16:18:25.428Z,201.30
2022-10-30T16:23:28.051Z,156.63
2022-10-30T16:28:36.274Z,138.37
2022-10-30T16:33:39.093Z,124.97
2022-10-30T16:38:41.996Z,118.80
2022-10-30T16:44:12.515Z,95.17
2022-10-30T16:49:21.373Z,89.77
2022-10-30T16:54:27.266Z,93.23
2022-10-30T16:59:33.919Z,92.30
2022-10-30T17:04:36.405Z,92.70
2022-10-30T17:09:38.890Z,107.53
2022-10-30T17:14:53.098Z,117.47
2022-10-30T17:19:57.772Z,97.53
2022-10-30T17:25:00.512Z,97.33
2022-10-30T17:30:04.151Z,97.17
2022-10-30T17:35:19.161Z,124.80
2022-10-30T17:40:22.030Z,129.77
2022-10-30T17:45:24.436Z,151.83
2022-10-30T17:50:26.785Z,151.37
2022-10-30T17:55:33.556Z,171.63
2022-10-30T18:00:35.951Z,190.87
2022-10-30T18:05:40.857Z,199.57
2022-10-30T18:10:43.297Z,210.13
2022-10-30T18:15:54.364Z,202.30
2022-10-30T18:20:56.784Z,203.80
2022-10-30T18:25:59.237Z,201.03
2022-10-30T18:31:01.866Z,206.50
2022-10-30T18:36:06.696Z,188.80
2022-10-30T18:41:27.726Z,183.90
2022-10-30T18:46:31.547Z,195.33
2022-10-30T18:51:33.891Z,178.47
2022-10-30T18:56:36.226Z,173.50
2022-10-30T19:01:39.080Z,177.27
2022-10-30T19:06:41.751Z,176.20
2022-10-30T19:11:44.663Z,227.93
2022-10-30T19:16:47.217Z,236.87
2022-10-30T19:21:50.585Z,271.70
2022-10-30T19:26:52.983Z,261.37
2022-10-30T19:31:55.407Z,259.83
2022-10-30T19:36:57.848Z,247.60
2022-10-30T19:42:00.555Z,252.90
2022-10-30T19:47:02.999Z,274.13
2022-10-30T19:52:05.574Z,272.80
2022-10-30T19:57:13.353Z,288.43
2022-10-30T20:02:15.906Z,295.57
2022-10-30T20:07:18.437Z,292.43
2022-10-30T20:12:20.856Z,281.13
2022-10-30T20:17:23.251Z,269.83
2022-10-30T20:22:28.346Z,262.30
2022-10-30T20:27:30.932Z,274.67
2022-10-30T20:32:33.541Z,261.93
2022-10-30T20:37:35.921Z,373.77
2022-10-30T20:42:39.012Z,467.63
2022-10-30T20:47:41.612Z,368.37
2022-10-30T20:52:44.174Z,395.63
2022-10-30T20:57:49.198Z,434.40
2022-10-30T21:02:54.188Z,408.90
2022-10-30T21:07:58.085Z,379.53
2022-10-30T21:13:03.620Z,381.47
2022-10-30T21:18:11.578Z,344.00
2022-10-30T21:23:13.988Z,363.20
2022-10-30T21:28:16.409Z,331.50
2022-10-30T21:33:18.787Z,280.80
2022-10-30T21:38:21.243Z,240.97
2022-10-30T21:43:23.925Z,247.50
2022-10-30T21:48:26.510Z,257.67
2022-10-30T21:53:30.813Z,304.77
2022-10-30T21:58:33.237Z,209.50
2022-10-30T22:03:35.623Z,225.37
2022-10-30T22:08:38.782Z,233.37
2022-10-30T22:13:41.574Z,198.50
2022-10-30T22:18:44.034Z,213.70
2022-10-30T22:23:46.494Z,197.47
2022-10-30T22:28:56.050Z,254.40
2022-10-30T22:34:01.697Z,233.10
2022-10-30T22:39:12.356Z,191.03
2022-10-30T22:44:17.828Z,158.63
2022-10-30T22:49:20.320Z,149.87
2022-10-30T22:54:22.801Z,124.73
2022-10-30T22:59:25.263Z,108.33
2022-10-30T23:04:27.672Z,100.90
2022-10-30T23:09:30.001Z,107.63
2022-10-30T23:14:32.365Z,116.30
2022-10-30T23:19:34.854Z,111.30
2022-10-30T23:24:37.206Z,118.03
2022-10-30T23:29:39.698Z,100.43
2022-10-30T23:34:42.102Z,91.37
2022-10-30T23:39:44.542Z,108.57
2022-10-30T23:44:47.201Z,100.33
2022-10-30T23:49:49.659Z,90.37
2022-10-30T23:54:52.371Z,272.43
2022-10-30T23:59:54.771Z,158.27
